Time;durP1;ratioP1;P1;durP2;ratioP2;P2;SDS_P1;SDS_P2;PMS_P1;PMS_P2;Temp;Humidity;BMP_temperature;BMP_pressure;BME280_temperature;BME280_humidity;BME280_pressure;Samples;Min_cycle;Max_cycle;Signal;HPM_P1;HPM_P2
2023/06/23 00:01:52;;;;;;;7.65;3.08;;;17.00;99.90;;;;;;5011439;28;20553;-73
2023/06/23 00:04:19;;;;;;;5.78;3.15;;;17.00;99.90;;;;;;5014274;28;20095;-73
2023/06/23 00:06:45;;;;;;;6.50;3.67;;;17.00;99.90;;;;;;5011596;28;20040;-72
2023/06/23 00:09:13;;;;;;;6.55;3.78;;;16.90;99.90;;;;;;5010338;28;20037;-73
2023/06/23 00:11:42;;;;;;;8.35;3.58;;;16.90;99.90;;;;;;5028857;28;20517;-72
2023/06/23 00:14:08;;;;;;;6.65;3.35;;;16.90;99.90;;;;;;5027368;28;20510;-73
2023/06/23 00:16:36;;;;;;;6.68;3.45;;;16.90;99.90;;;;;;5011665;28;20038;-73
2023/06/23 00:19:02;;;;;;;10.18;4.32;;;16.80;99.90;;;;;;5010882;28;20083;-73
2023/06/23 00:21:27;;;;;;;5.47;3.00;;;16.80;99.90;;;;;;5011166;28;20402;-72
2023/06/23 00:23:54;;;;;;;5.60;3.40;;;16.80;99.90;;;;;;5011040;28;20038;-72
2023/06/23 00:26:20;;;;;;;5.38;3.72;;;16.80;99.90;;;;;;5010671;28;20056;-74
2023/06/23 00:28:46;;;;;;;8.32;4.03;;;16.80;99.90;;;;;;5011334;28;20069;-72
2023/06/23 00:31:11;;;;;;;7.05;3.97;;;16.70;99.90;;;;;;5010569;28;20041;-73
2023/06/23 00:33:37;;;;;;;6.60;3.67;;;16.70;99.90;;;;;;5011762;28;20068;-73
2023/06/23 00:36:04;;;;;;;7.35;4.25;;;16.60;99.90;;;;;;5009980;28;20875;-73
2023/06/23 00:38:29;;;;;;;7.20;3.90;;;16.60;99.90;;;;;;5010958;28;20040;-73
2023/06/23 00:40:55;;;;;;;7.28;4.10;;;16.60;99.90;;;;;;5010304;28;20029;-74
2023/06/23 00:43:21;;;;;;;11.32;4.30;;;16.60;99.90;;;;;;5010682;28;20033;-73
2023/06/23 00:45:47;;;;;;;8.88;4.72;;;16.50;99.90;;;;;;5028628;28;20029;-74
2023/06/23 00:48:14;;;;;;;11.38;5.25;;;16.50;99.90;;;;;;5009974;28;20063;-72
2023/06/23 00:50:41;;;;;;;11.80;5.28;;;16.50;99.90;;;;;;5006195;28;20048;-74
2023/06/23 00:53:07;;;;;;;8.85;4.97;;;16.50;99.90;;;;;;5009860;28;20405;-73
2023/06/23 00:55:37;;;;;;;12.10;5.40;;;16.50;99.90;;;;;;5007802;28;20037;-73
2023/06/23 00:58:03;;;;;;;12.38;4.78;;;16.50;99.90;;;;;;5009706;28;20555;-73
2023/06/23 01:00:29;;;;;;;7.00;4.68;;;16.50;99.90;;;;;;5028312;28;20060;-72
2023/06/23 01:02:59;;;;;;;9.93;4.57;;;16.50;99.90;;;;;;5009785;28;20041;-76
2023/06/23 01:05:32;;;;;;;10.15;5.07;;;16.40;99.90;;;;;;5017905;28;20037;-73
2023/06/23 01:08:25;;;;;;;9.68;4.65;;;16.50;99.90;;;;;;5027360;28;20394;-73
2023/06/23 01:11:03;;;;;;;8.75;4.97;;;16.40;99.90;;;;;;5002932;28;20111;-72
2023/06/23 01:13:37;;;;;;;9.70;6.03;;;16.40;99.90;;;;;;5027644;28;20025;-73
2023/06/23 01:16:32;;;;;;;10.07;5.40;;;16.40;99.90;;;;;;5009199;28;20030;-73
2023/06/23 01:19:00;;;;;;;11.90;6.13;;;16.30;99.90;;;;;;5007140;28;20045;-72
2023/06/23 01:21:48;;;;;;;9.25;5.82;;;16.30;99.90;;;;;;5010079;28;20044;-72
2023/06/23 01:24:25;;;;;;;14.07;6.22;;;16.30;99.90;;;;;;5009451;28;20489;-73
2023/06/23 01:27:00;;;;;;;10.30;5.72;;;16.30;99.90;;;;;;5028720;28;20131;-72
2023/06/23 01:29:34;;;;;;;12.50;6.55;;;16.20;99.90;;;;;;5009658;28;20119;-73
2023/06/23 01:32:01;;;;;;;12.10;6.00;;;16.20;99.90;;;;;;5009192;28;20049;-74
2023/06/23 01:34:50;;;;;;;12.13;6.43;;;16.20;99.90;;;;;;5027830;28;20060;-73
2023/06/23 01:37:21;;;;;;;12.15;6.47;;;16.20;99.90;;;;;;5000959;28;20052;-73
2023/06/23 01:39:54;;;;;;;;;;;16.20;99.90;;;;;;5006901;28;20048;-73
2023/06/23 01:42:25;;;;;;;14.63;7.55;;;16.20;99.90;;;;;;5008690;28;19916;-74
2023/06/23 01:44:57;;;;;;;15.30;7.82;;;16.10;99.90;;;;;;5010030;28;20041;-73
2023/06/23 01:47:39;;;;;;;16.08;8.60;;;16.10;99.90;;;;;;5009309;28;20045;-73
2023/06/23 01:50:08;;;;;;;15.68;8.75;;;16.00;99.90;;;;;;5008460;28;20128;-73
2023/06/23 01:52:37;;;;;;;17.80;9.13;;;16.10;99.90;;;;;;5009492;28;20083;-74
2023/06/23 01:55:05;;;;;;;17.15;9.40;;;16.00;99.90;;;;;;5026453;28;20036;-73
2023/06/23 01:57:33;;;;;;;15.45;8.88;;;16.00;99.90;;;;;;5009326;28;20466;-74
2023/06/23 02:00:01;;;;;;;14.35;8.50;;;16.00;99.90;;;;;;5011447;28;20053;-73
2023/06/23 02:02:27;;;;;;;17.90;9.43;;;16.00;99.90;;;;;;5009313;28;20045;-74
2023/06/23 02:04:55;;;;;;;17.50;9.00;;;15.90;99.90;;;;;;5030347;28;20038;-73
2023/06/23 02:07:22;;;;;;;16.42;8.60;;;15.90;99.90;;;;;;5008887;28;20026;-73
2023/06/23 02:09:49;;;;;;;19.33;9.98;;;15.90;99.90;;;;;;5009470;28;20065;-73
2023/06/23 02:12:16;;;;;;;17.92;10.00;;;15.80;99.90;;;;;;5025880;28;20536;-73
2023/06/23 02:14:44;;;;;;;16.33;9.40;;;15.80;99.90;;;;;;5009442;28;20029;-74
2023/06/23 02:17:11;;;;;;;17.27;10.05;;;15.80;99.90;;;;;;5009254;28;20069;-73
2023/06/23 02:19:39;;;;;;;17.33;10.00;;;15.80;99.90;;;;;;5010050;28;20038;-72
2023/06/23 02:22:21;;;;;;;22.13;10.55;;;15.80;99.90;;;;;;5025678;28;20490;-74
2023/06/23 02:24:47;;;;;;;17.85;9.13;;;15.80;99.90;;;;;;5023921;28;20128;-73
2023/06/23 02:27:13;;;;;;;20.05;10.82;;;15.80;99.90;;;;;;5026253;28;20048;-73
2023/06/23 02:29:41;;;;;;;19.55;10.05;;;15.70;99.90;;;;;;5026833;28;20045;-73
2023/06/23 02:32:08;;;;;;;23.20;11.82;;;15.70;99.90;;;;;;5025879;28;20120;-73
2023/06/23 02:34:35;;;;;;;20.80;10.90;;;15.70;99.90;;;;;;5027017;28;20068;-73
2023/06/23 02:37:05;;;;;;;21.45;11.65;;;15.70;99.90;;;;;;5009478;28;20042;-74
2023/06/23 02:39:36;;;;;;;22.58;12.82;;;15.70;99.90;;;;;;5031027;28;20029;-73
2023/06/23 02:42:04;;;;;;;27.27;12.93;;;15.70;99.90;;;;;;5012352;28;20053;-72
2023/06/23 02:44:35;;;;;;;21.67;11.25;;;15.70;99.90;;;;;;5013580;28;20069;-73
2023/06/23 02:47:03;;;;;;;24.52;12.13;;;15.70;99.90;;;;;;5012216;28;20037;-73
2023/06/23 02:49:31;;;;;;;26.33;11.93;;;15.70;99.90;;;;;;5012910;28;20124;-74
2023/06/23 02:52:00;;;;;;;27.90;14.10;;;15.70;99.90;;;;;;5012132;28;20037;-72
2023/06/23 02:54:31;;;;;;;43.85;14.20;;;15.70;99.90;;;;;;5012852;28;20037;-72
2023/06/23 02:56:58;;;;;;;23.90;12.80;;;15.70;99.90;;;;;;5030159;28;20037;-73
2023/06/23 02:59:26;;;;;;;24.98;13.13;;;15.70;99.90;;;;;;5012806;28;20037;-71
2023/06/23 03:01:53;;;;;;;25.70;13.10;;;15.70;99.90;;;;;;5012334;28;20041;-72
2023/06/23 03:04:19;;;;;;;28.27;12.60;;;15.70;99.90;;;;;;5019055;28;20549;-73
2023/06/23 03:06:45;;;;;;;27.70;13.18;;;15.70;99.90;;;;;;5033646;28;20474;-73
2023/06/23 03:09:11;;;;;;;24.75;12.98;;;15.70;99.90;;;;;;5029506;28;20104;-73
2023/06/23 03:11:37;;;;;;;28.48;13.35;;;15.70;99.90;;;;;;5030913;28;20482;-73
2023/06/23 03:14:04;;;;;;;24.17;11.93;;;15.70;99.90;;;;;;5013992;28;20034;-73
2023/06/23 03:16:38;;;;;;;25.70;12.82;;;15.70;99.90;;;;;;5031670;28;20122;-72
2023/06/23 03:19:19;;;;;;;23.05;12.23;;;15.70;99.90;;;;;;5029931;28;20516;-74
2023/06/23 03:21:50;;;;;;;23.92;12.85;;;15.70;99.90;;;;;;5026894;28;20039;-74
2023/06/23 03:24:19;;;;;;;26.70;13.18;;;15.70;99.90;;;;;;5029196;28;20037;-72
2023/06/23 03:26:48;;;;;;;21.73;11.27;;;15.70;99.90;;;;;;5012514;28;20373;-73
2023/06/23 03:29:18;;;;;;;24.77;12.50;;;15.70;99.90;;;;;;5011144;28;20037;-73
2023/06/23 03:31:46;;;;;;;26.23;12.60;;;15.70;99.90;;;;;;5012129;28;20277;-73
2023/06/23 03:34:15;;;;;;;29.67;12.77;;;15.70;99.90;;;;;;5011285;28;20025;-72
2023/06/23 03:36:42;;;;;;;25.80;12.07;;;15.70;99.90;;;;;;5012049;28;20029;-73
2023/06/23 03:39:18;;;;;;;24.58;12.02;;;15.70;99.90;;;;;;5011092;28;20113;-74
2023/06/23 03:41:44;;;;;;;29.95;11.73;;;15.80;99.90;;;;;;5008738;28;20052;-73
2023/06/23 03:44:26;;;;;;;22.83;11.27;;;15.80;99.90;;;;;;5010950;28;20029;-74
2023/06/23 03:47:06;;;;;;;22.42;11.05;;;15.80;99.90;;;;;;5012169;28;20033;-72
2023/06/23 03:49:36;;;;;;;26.30;12.18;;;15.80;99.90;;;;;;5011242;28;20067;-73
2023/06/23 03:52:05;;;;;;;25.42;11.93;;;15.80;99.90;;;;;;5010921;28;20037;-73
2023/06/23 03:54:32;;;;;;;24.83;12.48;;;15.80;99.90;;;;;;5012008;28;20048;-74
2023/06/23 03:57:01;;;;;;;24.73;12.23;;;15.80;99.90;;;;;;5011124;28;20029;-74
2023/06/23 03:59:27;;;;;;;28.13;12.40;;;15.80;99.90;;;;;;5011863;28;20516;-72
2023/06/23 04:01:56;;;;;;;25.90;11.68;;;15.80;99.90;;;;;;5027685;28;20049;-74
2023/06/23 04:04:23;;;;;;;28.75;13.82;;;15.80;99.90;;;;;;5031246;28;20045;-73
2023/06/23 04:06:51;;;;;;;26.35;11.70;;;15.90;99.90;;;;;;5029817;28;20452;-73
2023/06/23 04:09:19;;;;;;;25.98;12.27;;;15.90;99.90;;;;;;5008029;28;20664;-73
2023/06/23 04:11:48;;;;;;;26.95;12.20;;;15.90;99.90;;;;;;5011548;28;20033;-74
2023/06/23 04:14:15;;;;;;;29.85;13.20;;;16.00;99.90;;;;;;5027677;28;20116;-72
2023/06/23 04:16:42;;;;;;;25.80;12.52;;;16.00;99.90;;;;;;5011516;28;20111;-73
2023/06/23 04:19:11;;;;;;;29.13;12.80;;;16.00;99.90;;;;;;5012859;28;20383;-73
2023/06/23 04:21:38;;;;;;;32.88;13.57;;;16.10;99.90;;;;;;5007464;28;20060;-72
2023/06/23 04:24:06;;;;;;;30.60;13.30;;;16.10;99.90;;;;;;5006456;28;20453;-74
2023/06/23 04:26:34;;;;;;;33.80;13.32;;;16.10;99.90;;;;;;5011348;28;20033;-72
2023/06/23 04:29:02;;;;;;;27.70;13.05;;;16.20;99.90;;;;;;5009921;28;20064;-74
2023/06/23 04:31:30;;;;;;;30.85;14.13;;;16.30;99.90;;;;;;5010863;28;20119;-72
2023/06/23 04:33:55;;;;;;;27.63;12.35;;;16.30;99.90;;;;;;5011070;28;20033;-73
2023/06/23 04:36:24;;;;;;;30.15;13.55;;;16.30;99.90;;;;;;5028065;28;20045;-74
2023/06/23 04:38:58;;;;;;;25.63;12.50;;;16.40;99.90;;;;;;5029031;28;20037;-74
2023/06/23 04:41:26;;;;;;;27.33;12.48;;;16.40;99.90;;;;;;5027726;28;20033;-73
2023/06/23 04:43:56;;;;;;;31.35;13.48;;;16.40;99.90;;;;;;5028930;28;20140;-74
2023/06/23 04:46:36;;;;;;;32.95;13.75;;;16.50;99.90;;;;;;5028178;28;20120;-73
2023/06/23 04:49:10;;;;;;;31.40;13.55;;;16.50;99.90;;;;;;5009940;28;20044;-73
2023/06/23 04:51:43;;;;;;;34.17;13.98;;;16.60;99.90;;;;;;5006772;28;20037;-73
2023/06/23 04:54:17;;;;;;;29.05;12.55;;;16.60;99.90;;;;;;5007166;28;20038;-73
2023/06/23 04:56:47;;;;;;;31.15;13.88;;;16.70;99.90;;;;;;5011934;28;20037;-73
2023/06/23 04:59:15;;;;;;;29.65;13.50;;;16.70;99.90;;;;;;5027362;28;20120;-74
2023/06/23 05:01:43;;;;;;;28.50;14.05;;;16.80;99.90;;;;;;5010145;28;20045;-74
2023/06/23 05:04:11;;;;;;;29.80;13.07;;;16.80;99.90;;;;;;5010920;28;20425;-72
2023/06/23 05:06:38;;;;;;;29.52;13.63;;;16.90;99.90;;;;;;5028272;28;20107;-74
2023/06/23 05:09:05;;;;;;;34.15;13.90;;;16.90;99.90;;;;;;5009291;28;20026;-73
2023/06/23 05:11:32;;;;;;;32.67;13.93;;;17.00;99.90;;;;;;5024100;28;20033;-73
2023/06/23 05:13:58;;;;;;;32.50;13.45;;;17.00;99.90;;;;;;5009920;28;20034;-73
2023/06/23 05:16:24;;;;;;;24.65;11.88;;;17.00;99.90;;;;;;5027069;28;20668;-74
2023/06/23 05:18:52;;;;;;;30.70;13.45;;;17.10;99.90;;;;;;5011843;28;20576;-74
2023/06/23 05:21:21;;;;;;;31.50;14.48;;;17.20;99.90;;;;;;5025732;28;20088;-73
2023/06/23 05:23:49;;;;;;;30.83;13.60;;;17.30;99.90;;;;;;5027206;28;20460;-74
2023/06/23 05:26:16;;;;;;;34.78;13.05;;;17.50;99.90;;;;;;5008209;28;20046;-73
2023/06/23 05:28:43;;;;;;;24.92;12.23;;;17.70;99.90;;;;;;5009346;28;20025;-73
2023/06/23 05:31:11;;;;;;;25.70;12.63;;;17.80;99.90;;;;;;5008273;28;20506;-72
2023/06/23 05:33:39;;;;;;;26.45;13.25;;;17.80;99.90;;;;;;5010199;28;20041;-74
2023/06/23 05:36:09;;;;;;;24.55;12.30;;;18.00;99.90;;;;;;5008844;28;20117;-74
2023/06/23 05:38:36;;;;;;;21.67;12.30;;;18.00;99.90;;;;;;5011271;28;20049;-72
2023/06/23 05:41:03;;;;;;;30.33;12.10;;;18.10;99.90;;;;;;5010915;28;20040;-74
2023/06/23 05:43:28;;;;;;;28.08;11.95;;;18.30;99.90;;;;;;5029787;28;20041;-73
2023/06/23 05:45:56;;;;;;;28.20;12.32;;;18.30;99.90;;;;;;5029989;28;20038;-73
2023/06/23 05:48:41;;;;;;;26.38;12.05;;;18.40;99.90;;;;;;5010019;28;20049;-72
2023/06/23 05:51:13;;;;;;;21.30;11.15;;;18.60;99.90;;;;;;5027012;28;20048;-73
2023/06/23 05:53:41;;;;;;;22.02;11.68;;;18.80;99.90;;;;;;5009324;28;20040;-73
2023/06/23 05:56:33;;;;;;;20.17;10.68;;;19.10;99.90;;;;;;5023713;28;20033;-73
2023/06/23 05:59:03;;;;;;;21.33;11.25;;;19.50;99.90;;;;;;5022793;28;20076;-74
2023/06/23 06:01:30;;;;;;;;;;;19.90;99.90;;;;;;5005960;28;20037;-72
2023/06/23 06:04:10;;;;;;;21.92;10.07;;;20.20;99.90;;;;;;5010878;28;19913;-72
2023/06/23 06:06:37;;;;;;;18.42;10.25;;;20.60;99.90;;;;;;5022912;28;20044;-73
2023/06/23 06:09:05;;;;;;;17.38;9.32;;;20.60;99.90;;;;;;5008577;28;20055;-74
2023/06/23 06:11:33;;;;;;;15.77;9.18;;;20.60;99.90;;;;;;5023696;28;20493;-74
2023/06/23 06:14:00;;;;;;;18.17;9.63;;;20.50;99.90;;;;;;5022738;28;20040;-76
2023/06/23 06:16:26;;;;;;;18.55;10.00;;;20.60;99.90;;;;;;5027240;28;20038;-74
2023/06/23 06:18:53;;;;;;;18.88;10.20;;;20.60;99.90;;;;;;5027419;28;20099;-75
2023/06/23 06:21:20;;;;;;;18.75;9.88;;;20.60;99.90;;;;;;5024699;28;20152;-73
2023/06/23 06:23:47;;;;;;;18.58;9.18;;;20.60;99.90;;;;;;5007749;28;20041;-73
2023/06/23 06:26:17;;;;;;;16.67;9.18;;;20.60;99.90;;;;;;5025669;28;20036;-74
2023/06/23 06:28:43;;;;;;;17.17;9.93;;;20.60;99.90;;;;;;5026364;28;20065;-71
2023/06/23 06:31:10;;;;;;;14.15;8.77;;;20.70;99.90;;;;;;5007625;28;20034;-72
2023/06/23 06:33:37;;;;;;;13.95;8.43;;;20.80;99.90;;;;;;5026330;28;20033;-74
2023/06/23 06:36:05;;;;;;;15.73;8.82;;;20.80;99.90;;;;;;5007500;28;20044;-73
2023/06/23 06:38:37;;;;;;;14.02;8.25;;;20.80;99.90;;;;;;5007783;28;20112;-72
2023/06/23 06:41:05;;;;;;;14.98;8.18;;;21.00;99.90;;;;;;5025259;28;20135;-73
2023/06/23 06:43:31;;;;;;;15.20;8.00;;;21.10;99.90;;;;;;5027205;28;20490;-72
2023/06/23 06:46:00;;;;;;;14.77;8.85;;;21.20;99.90;;;;;;5008271;28;20045;-75
2023/06/23 06:48:27;;;;;;;13.02;7.32;;;21.30;99.90;;;;;;5007764;28;20030;-73
2023/06/23 06:50:55;;;;;;;13.57;7.50;;;21.40;99.90;;;;;;5022352;28;20092;-73
2023/06/23 06:53:21;;;;;;;12.30;7.32;;;21.50;99.90;;;;;;5007531;28;20041;-73
2023/06/23 06:55:47;;;;;;;14.18;7.03;;;21.60;99.90;;;;;;5008471;28;20042;-72
2023/06/23 06:58:15;;;;;;;12.77;7.28;;;21.80;99.90;;;;;;5024923;28;20050;-73
2023/06/23 07:00:41;;;;;;;14.30;6.57;;;21.90;99.90;;;;;;5008246;28;20037;-73
2023/06/23 07:03:07;;;;;;;11.07;6.78;;;22.10;99.90;;;;;;5024581;28;20509;-72
2023/06/23 07:05:33;;;;;;;14.25;7.35;;;22.40;99.90;;;;;;5028872;28;20047;-72
2023/06/23 07:07:59;;;;;;;11.35;6.90;;;22.70;99.90;;;;;;5025626;28;20037;-73
2023/06/23 07:10:24;;;;;;;10.77;6.93;;;23.10;99.90;;;;;;5021860;28;20520;-73
2023/06/23 07:12:50;;;;;;;15.25;7.30;;;23.80;99.90;;;;;;5008362;28;20026;-72
2023/06/23 07:15:16;;;;;;;11.70;7.18;;;24.40;99.90;;;;;;5007451;28;20045;-72
2023/06/23 07:17:41;;;;;;;11.73;7.72;;;25.10;99.90;;;;;;5026149;28;20047;-74
2023/06/23 07:20:07;;;;;;;13.15;8.15;;;25.50;99.90;;;;;;5025101;28;20064;-73
2023/06/23 07:22:33;;;;;;;13.35;6.80;;;26.10;99.90;;;;;;5026534;28;20049;-72
2023/06/23 07:24:59;;;;;;;13.52;6.60;;;26.80;99.90;;;;;;5030005;28;20033;-73
2023/06/23 07:27:24;;;;;;;9.77;7.35;;;27.60;99.90;;;;;;5013132;28;20069;-72
2023/06/23 07:29:50;;;;;;;12.18;8.25;;;28.50;99.90;;;;;;5032602;28;20041;-75
2023/06/23 07:32:16;;;;;;;11.98;6.85;;;29.00;99.90;;;;;;5013201;28;20112;-74
2023/06/23 07:34:42;;;;;;;11.02;6.93;;;29.30;99.90;;;;;;5013879;28;20041;-71
2023/06/23 07:37:10;;;;;;;17.55;7.35;;;30.10;99.50;;;;;;5031086;28;20107;-74
2023/06/23 07:39:37;;;;;;;10.05;7.28;;;30.60;99.50;;;;;;5013157;28;20081;-74
2023/06/23 07:42:04;;;;;;;9.48;6.82;;;31.40;97.30;;;;;;5029164;28;20136;-74
2023/06/23 07:44:31;;;;;;;9.75;7.70;;;31.90;96.90;;;;;;5011849;28;20041;-74
2023/06/23 07:46:58;;;;;;;9.38;7.22;;;32.40;95.70;;;;;;5028545;28;20029;-76
2023/06/23 07:49:23;;;;;;;7.32;5.32;;;32.50;94.90;;;;;;5026417;28;20545;-74
2023/06/23 07:51:49;;;;;;;7.72;5.80;;;33.00;94.30;;;;;;5029662;28;20037;-73
2023/06/23 07:54:14;;;;;;;6.68;5.40;;;33.40;93.70;;;;;;5010747;28;20030;-74
2023/06/23 07:56:40;;;;;;;7.05;6.30;;;33.60;93.40;;;;;;5011513;28;20037;-74
2023/06/23 07:59:06;;;;;;;7.65;6.65;;;33.90;92.00;;;;;;5010335;28;20037;-75
2023/06/23 08:01:31;;;;;;;8.75;6.30;;;33.60;91.40;;;;;;5028755;28;20037;-75
2023/06/23 08:03:57;;;;;;;7.72;6.38;;;33.70;91.20;;;;;;5010870;28;20046;-74
2023/06/23 08:06:23;;;;;;;9.57;5.95;;;33.60;90.90;;;;;;5028379;28;20052;-73
2023/06/23 08:08:52;;;;;;;7.25;5.85;;;33.50;91.00;;;;;;5029418;28;20490;-72
2023/06/23 08:11:18;;;;;;;5.63;5.05;;;33.50;91.30;;;;;;5009776;28;20033;-72
2023/06/23 08:13:44;;;;;;;5.85;5.20;;;33.10;90.90;;;;;;5010860;28;20094;-74
2023/06/23 08:16:10;;;;;;;10.85;5.63;;;32.80;91.00;;;;;;5027791;28;20453;-73
2023/06/23 08:18:36;;;;;;;11.05;5.25;;;32.60;91.10;;;;;;5028959;28;20041;-73
2023/06/23 08:21:05;;;;;;;9.63;5.50;;;32.10;90.70;;;;;;5027398;28;20021;-73
2023/06/23 08:23:30;;;;;;;7.53;5.00;;;31.70;90.90;;;;;;5010871;28;20397;-72
2023/06/23 08:25:56;;;;;;;5.25;4.55;;;31.20;90.80;;;;;;5011107;28;20109;-72
2023/06/23 08:28:21;;;;;;;6.07;3.70;;;30.70;91.50;;;;;;5023971;28;20478;-73
2023/06/23 08:30:47;;;;;;;7.22;4.20;;;30.10;92.20;;;;;;5012255;28;20037;-72
2023/06/23 08:33:13;;;;;;;8.20;3.63;;;29.50;92.80;;;;;;5009564;28;20379;-72
2023/06/23 08:35:38;;;;;;;5.07;3.55;;;28.70;93.20;;;;;;5008797;28;20049;-72
2023/06/23 08:38:05;;;;;;;6.45;3.28;;;28.30;93.60;;;;;;5008697;28;20044;-73
2023/06/23 08:40:30;;;;;;;5.13;3.20;;;28.00;94.80;;;;;;5028434;28;20045;-72
2023/06/23 08:42:57;;;;;;;4.13;2.60;;;27.80;94.40;;;;;;5028246;28;20729;-72
2023/06/23 08:45:23;;;;;;;4.53;2.70;;;27.60;94.90;;;;;;5029620;28;20052;-72
2023/06/23 08:47:53;;;;;;;4.50;2.30;;;27.30;95.50;;;;;;5000365;28;20045;-72
2023/06/23 08:50:20;;;;;;;5.03;2.63;;;27.20;96.00;;;;;;5023711;28;20041;-72
2023/06/23 08:52:46;;;;;;;3.53;2.00;;;26.90;94.70;;;;;;5028662;28;20064;-71
2023/06/23 08:55:11;;;;;;;2.95;1.63;;;26.60;95.10;;;;;;5009824;28;20438;-72
2023/06/23 08:57:38;;;;;;;5.65;2.22;;;26.60;95.40;;;;;;5028729;28;20041;-72
2023/06/23 09:00:06;;;;;;;3.33;1.80;;;26.60;95.80;;;;;;5027469;28;20527;-72
2023/06/23 09:02:32;;;;;;;2.92;1.60;;;26.50;95.60;;;;;;5028272;28;20500;-72
2023/06/23 09:04:57;;;;;;;3.03;1.80;;;26.50;95.90;;;;;;5013685;28;20037;-74
2023/06/23 09:07:24;;;;;;;3.95;1.52;;;26.40;95.90;;;;;;5009811;28;20048;-73
2023/06/23 09:09:50;;;;;;;2.97;1.33;;;26.40;95.40;;;;;;5009930;28;20037;-74
2023/06/23 09:12:20;;;;;;;5.03;1.40;;;26.40;94.40;;;;;;5026553;28;20045;-72
2023/06/23 09:14:47;;;;;;;4.60;1.42;;;26.40;93.70;;;;;;5009339;28;20041;-73
2023/06/23 09:17:13;;;;;;;5.50;1.27;;;26.20;93.10;;;;;;5008731;28;20044;-73
2023/06/23 09:19:42;;;;;;;3.25;1.27;;;26.10;93.40;;;;;;5014359;28;20037;-73
2023/06/23 09:22:09;;;;;;;3.13;1.40;;;26.10;93.50;;;;;;5010940;28;20048;-73
2023/06/23 09:24:47;;;;;;;1.95;1.13;;;26.00;93.10;;;;;;5031279;28;20040;-73
2023/06/23 09:27:14;;;;;;;2.92;1.20;;;26.00;93.80;;;;;;5028092;28;20047;-72
2023/06/23 09:29:40;;;;;;;2.60;1.10;;;26.10;94.00;;;;;;5028045;28;20033;-74
2023/06/23 09:32:09;;;;;;;1.95;1.10;;;26.10;94.60;;;;;;5009319;28;20079;-75
2023/06/23 09:34:36;;;;;;;4.50;0.82;;;26.20;94.20;;;;;;5027632;28;20056;-73
2023/06/23 09:37:20;;;;;;;2.75;1.30;;;26.20;93.70;;;;;;5009320;28;20037;-73
2023/06/23 09:39:49;;;;;;;2.53;1.42;;;26.20;93.60;;;;;;5009936;28;20116;-73
2023/06/23 09:42:15;;;;;;;3.78;1.00;;;26.20;94.00;;;;;;5027041;28;20099;-73
2023/06/23 09:44:45;;;;;;;2.15;1.10;;;26.10;92.30;;;;;;5028397;28;20607;-72
2023/06/23 09:47:13;;;;;;;4.18;1.70;;;26.10;94.20;;;;;;5008667;28;20046;-73
2023/06/23 09:49:44;;;;;;;2.70;1.27;;;26.20;95.60;;;;;;5009508;28;20045;-73
2023/06/23 09:52:14;;;;;;;3.53;1.33;;;26.40;95.40;;;;;;5008382;28;20049;-73
2023/06/23 09:54:40;;;;;;;;;;;26.50;95.00;;;;;;5010344;28;20041;-73
2023/06/23 09:57:08;;;;;;;2.15;1.27;;;26.50;92.50;;;;;;5026564;28;19917;-73
2023/06/23 09:59:38;;;;;;;2.80;1.65;;;26.60;93.20;;;;;;5027611;28;20041;-73
2023/06/23 10:02:04;;;;;;;;;;;26.60;92.80;;;;;;5026814;28;20112;-73
2023/06/23 10:04:30;;;;;;;3.95;1.05;;;26.60;93.70;;;;;;5034947;28;19919;-73
2023/06/23 10:06:56;;;;;;;2.92;0.77;;;26.60;92.90;;;;;;5027169;28;20037;-73
2023/06/23 10:09:23;;;;;;;2.58;1.60;;;26.40;91.60;;;;;;5014049;28;20041;-73
2023/06/23 10:11:49;;;;;;;6.38;1.38;;;26.60;92.30;;;;;;5012354;28;20056;-72
2023/06/23 10:14:15;;;;;;;3.58;1.02;;;26.60;91.80;;;;;;5010683;28;20037;-72
2023/06/23 10:16:45;;;;;;;2.53;1.73;;;26.60;91.90;;;;;;5031105;28;20030;-73
2023/06/23 10:19:12;;;;;;;5.78;1.02;;;26.70;92.60;;;;;;5021532;28;20034;-72
2023/06/23 10:21:39;;;;;;;3.80;1.50;;;26.90;93.20;;;;;;5010332;28;20099;-73
2023/06/23 10:24:10;;;;;;;1.88;1.10;;;27.00;91.80;;;;;;5008622;28;20029;-72
2023/06/23 10:26:37;;;;;;;1.58;1.10;;;27.10;91.70;;;;;;5012906;28;20091;-72
2023/06/23 10:29:11;;;;;;;2.85;1.33;;;27.10;91.20;;;;;;5008628;28;20030;-73
2023/06/23 10:31:38;;;;;;;1.77;0.70;;;27.10;91.80;;;;;;5009136;28;20029;-71
2023/06/23 10:34:05;;;;;;;3.08;1.20;;;27.20;92.00;;;;;;5026156;28;20115;-72
2023/06/23 10:36:35;;;;;;;2.13;1.10;;;27.20;91.00;;;;;;5027504;28;20029;-71
2023/06/23 10:39:04;;;;;;;3.53;1.25;;;27.20;91.90;;;;;;5008561;28;20034;-72
2023/06/23 10:41:32;;;;;;;4.10;1.58;;;27.20;90.70;;;;;;5008800;28;20037;-72
2023/06/23 10:44:02;;;;;;;3.20;1.10;;;27.00;90.90;;;;;;5029207;28;20026;-72
2023/06/23 10:46:28;;;;;;;5.10;1.38;;;27.10;91.50;;;;;;5008829;28;20041;-72
2023/06/23 10:48:54;;;;;;;3.38;1.25;;;27.10;91.40;;;;;;5009534;28;20378;-72
2023/06/23 10:51:20;;;;;;;4.15;1.80;;;27.00;90.90;;;;;;5026005;28;20034;-72
2023/06/23 10:54:00;;;;;;;4.60;1.10;;;27.00;91.80;;;;;;5027001;28;20029;-72
2023/06/23 10:56:31;;;;;;;2.40;1.27;;;27.00;91.20;;;;;;5023986;28;20033;-72
2023/06/23 10:58:56;;;;;;;3.92;1.67;;;27.10;90.90;;;;;;5030115;28;20577;-72
2023/06/23 11:01:22;;;;;;;12.48;2.08;;;27.10;91.10;;;;;;5029529;28;20321;-74
2023/06/23 11:03:53;;;;;;;3.88;1.20;;;27.20;91.00;;;;;;5015916;28;20405;-72
2023/06/23 11:06:28;;;;;;;2.22;1.35;;;27.20;90.80;;;;;;5011867;28;20464;-73
2023/06/23 11:08:53;;;;;;;1.67;1.15;;;27.30;90.90;;;;;;5030565;28;20029;-72
2023/06/23 11:11:33;;;;;;;2.20;1.02;;;27.30;91.30;;;;;;5033391;28;20040;-72
2023/06/23 11:13:59;;;;;;;4.70;1.13;;;27.20;90.30;;;;;;5021773;28;20505;-73
2023/06/23 11:16:38;;;;;;;5.00;1.55;;;27.10;91.40;;;;;;5016219;28;20037;-73
2023/06/23 11:19:04;;;;;;;2.67;1.40;;;27.30;92.00;;;;;;5014038;28;20057;-74
2023/06/23 11:21:37;;;;;;;4.93;1.83;;;27.30;91.30;;;;;;5021438;28;20033;-72
2023/06/23 11:24:29;;;;;;;4.68;1.40;;;27.10;89.80;;;;;;5029625;28;20083;-73
2023/06/23 11:27:02;;;;;;;2.47;1.17;;;27.20;90.70;;;;;;5026581;28;20105;-73
2023/06/23 11:29:28;;;;;;;1.75;1.20;;;27.30;91.00;;;;;;5029743;28;20430;-73
2023/06/23 11:32:13;;;;;;;2.30;1.10;;;27.30;90.80;;;;;;5030017;28;20076;-74
2023/06/23 11:34:57;;;;;;;3.92;1.42;;;27.50;91.70;;;;;;5029968;28;20424;-73
2023/06/23 11:37:29;;;;;;;2.05;0.93;;;27.60;90.30;;;;;;5027337;28;20037;-72
2023/06/23 11:39:55;;;;;;;2.60;1.10;;;27.70;90.70;;;;;;5012359;28;20437;-72
2023/06/23 11:42:22;;;;;;;3.55;1.15;;;27.80;90.50;;;;;;5010970;28;20034;-73
2023/06/23 11:44:51;;;;;;;3.47;1.52;;;27.90;90.30;;;;;;5012931;28;20390;-73
2023/06/23 11:47:23;;;;;;;4.25;1.88;;;27.80;88.40;;;;;;5030412;28;20041;-73
2023/06/23 11:49:49;;;;;;;1.95;1.50;;;27.70;89.30;;;;;;5031877;28;20099;-74
2023/06/23 11:52:15;;;;;;;3.63;1.48;;;27.70;89.90;;;;;;5030151;28;20068;-74
2023/06/23 11:54:41;;;;;;;2.78;1.60;;;27.70;90.10;;;;;;5011153;28;20060;-73
2023/06/23 11:57:07;;;;;;;2.75;1.55;;;27.60;90.10;;;;;;5008730;28;20033;-73
2023/06/23 11:59:35;;;;;;;3.22;1.20;;;27.60;89.70;;;;;;5011858;28;20095;-73
2023/06/23 12:02:01;;;;;;;4.22;1.48;;;27.60;89.60;;;;;;5029133;28;20065;-73
2023/06/23 12:04:26;;;;;;;4.53;1.50;;;27.50;87.70;;;;;;5017218;28;20029;-73
2023/06/23 12:06:52;;;;;;;4.65;1.40;;;27.40;89.30;;;;;;5035084;28;20033;-73
2023/06/23 12:09:20;;;;;;;3.33;2.05;;;27.40;89.10;;;;;;5028409;28;20049;-72
2023/06/23 12:11:46;;;;;;;3.78;1.55;;;27.40;89.40;;;;;;5011568;28;20042;-73
2023/06/23 12:14:12;;;;;;;2.22;1.40;;;27.40;90.00;;;;;;5027885;28;20033;-73
2023/06/23 12:16:38;;;;;;;3.83;1.48;;;27.40;89.20;;;;;;5029852;28;20387;-73
2023/06/23 12:19:03;;;;;;;1.73;1.10;;;27.50;90.00;;;;;;5010829;28;20486;-74
2023/06/23 12:21:29;;;;;;;2.30;1.25;;;27.40;89.50;;;;;;5028945;28;20585;-72
2023/06/23 12:23:58;;;;;;;2.90;1.40;;;27.50;87.50;;;;;;5029001;28;20120;-73
2023/06/23 12:26:23;;;;;;;1.70;1.20;;;27.40;87.50;;;;;;5028860;28;20036;-72
2023/06/23 12:28:49;;;;;;;3.03;1.65;;;27.50;87.60;;;;;;5028798;28;20125;-73
2023/06/23 12:31:27;;;;;;;7.60;1.33;;;27.30;87.00;;;;;;5028063;28;20079;-74
2023/06/23 12:33:54;;;;;;;3.80;1.27;;;27.20;87.40;;;;;;5009686;28;20077;-72
2023/06/23 12:36:19;;;;;;;3.17;1.15;;;27.20;87.40;;;;;;5009713;28;20485;-73
2023/06/23 12:38:53;;;;;;;3.15;1.20;;;27.10;86.90;;;;;;5010633;28;20064;-73
2023/06/23 12:41:24;;;;;;;2.95;1.10;;;27.10;89.30;;;;;;5027132;28;20382;-73
2023/06/23 12:43:52;;;;;;;3.92;1.35;;;27.10;88.00;;;;;;5010661;28;20379;-73
2023/06/23 12:46:23;;;;;;;2.65;1.05;;;27.00;85.80;;;;;;5009624;28;20049;-73
2023/06/23 12:48:49;;;;;;;3.85;1.00;;;27.00;86.60;;;;;;5010008;28;20121;-73